sensor_id;sensor_type;location;lat;lon;timestamp;pressure;altitude;pressure_sealevel;temperature;humidity
9893;BME280;4985;49.092;8.542;2023-04-08T00:02:13;99659.72;;;15.99;51.77
9893;BME280;4985;49.092;8.542;2023-04-08T00:04:40;99659.72;;;15.99;51.75
9893;BME280;4985;49.092;8.542;2023-04-08T00:07:08;99669.31;;;16.00;51.75
9893;BME280;4985;49.092;8.542;2023-04-08T00:09:35;99668.50;;;15.99;51.74
9893;BME280;4985;49.092;8.542;2023-04-08T00:12:01;99665.03;;;15.99;51.74
9893;BME280;4985;49.092;8.542;2023-04-08T00:14:28;99661.56;;;15.98;51.75
9893;BME280;4985;49.092;8.542;2023-04-08T00:16:54;99668.69;;;15.98;51.75
9893;BME280;4985;49.092;8.542;2023-04-08T00:19:21;99672.16;;;15.98;51.77
9893;BME280;4985;49.092;8.542;2023-04-08T00:21:47;99664.41;;;15.97;51.75
9893;BME280;4985;49.092;8.542;2023-04-08T00:24:16;99670.53;;;15.97;51.76
9893;BME280;4985;49.092;8.542;2023-04-08T00:26:42;99668.69;;;15.98;51.77
9893;BME280;4985;49.092;8.542;2023-04-08T00:29:09;99668.69;;;15.98;51.75
9893;BME280;4985;49.092;8.542;2023-04-08T00:31:36;99668.69;;;15.98;51.75
9893;BME280;4985;49.092;8.542;2023-04-08T00:34:02;99679.31;;;15.98;51.75
9893;BME280;4985;49.092;8.542;2023-04-08T00:36:29;99678.50;;;15.97;51.75
9893;BME280;4985;49.092;8.542;2023-04-08T00:38:55;99677.69;;;15.97;51.75
9893;BME280;4985;49.092;8.542;2023-04-08T00:41:23;99679.31;;;15.98;51.76
9893;BME280;4985;49.092;8.542;2023-04-08T00:43:51;99678.50;;;15.97;51.76
9893;BME280;4985;49.092;8.542;2023-04-08T00:46:17;99676.81;;;15.96;51.76
9893;BME280;4985;49.092;8.542;2023-04-08T00:48:44;99676.81;;;15.96;51.76
9893;BME280;4985;49.092;8.542;2023-04-08T00:51:10;99678.66;;;15.96;51.78
9893;BME280;4985;49.092;8.542;2023-04-08T00:53:37;99665.37;;;15.96;51.77
9893;BME280;4985;49.092;8.542;2023-04-08T00:56:04;99670.69;;;15.96;51.76
9893;BME280;4985;49.092;8.542;2023-04-08T00:58:32;99682.97;;;15.97;51.76
9893;BME280;4985;49.092;8.542;2023-04-08T01:01:02;99682.13;;;15.96;51.76
9893;BME280;4985;49.092;8.542;2023-04-08T01:03:37;99682.13;;;15.96;51.76
9893;BME280;4985;49.092;8.542;2023-04-08T01:06:13;99677.84;;;15.95;51.76
9893;BME280;4985;49.092;8.542;2023-04-08T01:08:42;99676.38;;;15.93;51.77
9893;BME280;4985;49.092;8.542;2023-04-08T01:11:10;99684.97;;;15.95;51.77
9893;BME280;4985;49.092;8.542;2023-04-08T01:13:40;99677.00;;;15.95;51.76
9893;BME280;4985;49.092;8.542;2023-04-08T01:16:11;99674.34;;;15.95;51.77
9893;BME280;4985;49.092;8.542;2023-04-08T01:18:39;99681.31;;;15.96;51.77
9893;BME280;4985;49.092;8.542;2023-04-08T01:21:07;99677.84;;;15.95;51.76
9893;BME280;4985;49.092;8.542;2023-04-08T01:23:39;99678.66;;;15.96;51.78
9893;BME280;4985;49.092;8.542;2023-04-08T01:26:12;99677.00;;;15.95;51.77
9893;BME280;4985;49.092;8.542;2023-04-08T01:28:46;99670.88;;;15.94;51.79
9893;BME280;4985;49.092;8.542;2023-04-08T01:31:15;99681.31;;;15.96;51.77
9893;BME280;4985;49.092;8.542;2023-04-08T01:33:44;99673.34;;;15.96;51.76
9893;BME280;4985;49.092;8.542;2023-04-08T01:36:11;99677.84;;;15.95;51.75
9893;BME280;4985;49.092;8.542;2023-04-08T01:38:39;99680.50;;;15.95;51.76
9893;BME280;4985;49.092;8.542;2023-04-08T01:41:08;99662.91;;;15.94;51.77
9893;BME280;4985;49.092;8.542;2023-04-08T01:43:39;99671.91;;;15.93;51.79
9893;BME280;4985;49.092;8.542;2023-04-08T01:46:07;99663.09;;;15.93;51.80
9893;BME280;4985;49.092;8.542;2023-04-08T01:48:36;99668.41;;;15.93;51.79
9893;BME280;4985;49.092;8.542;2023-04-08T01:51:04;99667.59;;;15.92;51.80
9893;BME280;4985;49.092;8.542;2023-04-08T01:53:31;99670.25;;;15.92;51.80
9893;BME280;4985;49.092;8.542;2023-04-08T01:56:05;99659.63;;;15.92;51.79
9893;BME280;4985;49.092;8.542;2023-04-08T01:58:37;99670.25;;;15.92;51.80
9893;BME280;4985;49.092;8.542;2023-04-08T02:01:09;99669.44;;;15.92;51.81
9893;BME280;4985;49.092;8.542;2023-04-08T02:03:37;99668.63;;;15.91;51.82
9893;BME280;4985;49.092;8.542;2023-04-08T02:06:04;99665.97;;;15.91;51.82
9893;BME280;4985;49.092;8.542;2023-04-08T02:08:32;99662.88;;;15.88;51.81
9893;BME280;4985;49.092;8.542;2023-04-08T02:10:59;99665.13;;;15.91;51.82
9893;BME280;4985;49.092;8.542;2023-04-08T02:13:26;99667.78;;;15.91;51.83
9893;BME280;4985;49.092;8.542;2023-04-08T02:16:02;99676.78;;;15.90;51.82
9893;BME280;4985;49.092;8.542;2023-04-08T02:18:33;99673.09;;;15.91;51.84
9893;BME280;4985;49.092;8.542;2023-04-08T02:21:07;99676.78;;;15.90;51.82
9893;BME280;4985;49.092;8.542;2023-04-08T02:23:37;99666.16;;;15.90;51.83
9893;BME280;4985;49.092;8.542;2023-04-08T02:26:06;99663.50;;;15.90;51.85
9893;BME280;4985;49.092;8.542;2023-04-08T02:28:34;99676.13;;;15.88;51.88
9893;BME280;4985;49.092;8.542;2023-04-08T02:31:01;99671.66;;;15.88;51.90
9893;BME280;4985;49.092;8.542;2023-04-08T02:33:32;99672.66;;;15.87;51.91
9893;BME280;4985;49.092;8.542;2023-04-08T02:36:01;99666.53;;;15.87;51.91
9893;BME280;4985;49.092;8.542;2023-04-08T02:38:29;99667.34;;;15.87;51.92
9893;BME280;4985;49.092;8.542;2023-04-08T02:40:56;99665.72;;;15.86;51.92
9893;BME280;4985;49.092;8.542;2023-04-08T02:43:22;99673.47;;;15.88;51.91
9893;BME280;4985;49.092;8.542;2023-04-08T02:45:54;99663.69;;;15.88;51.89
9893;BME280;4985;49.092;8.542;2023-04-08T02:48:20;99662.88;;;15.88;51.88
9893;BME280;4985;49.092;8.542;2023-04-08T02:50:48;99666.53;;;15.87;51.89
9893;BME280;4985;49.092;8.542;2023-04-08T02:53:15;99667.34;;;15.87;51.90
9893;BME280;4985;49.092;8.542;2023-04-08T02:55:41;99667.34;;;15.87;51.89
9893;BME280;4985;49.092;8.542;2023-04-08T02:58:08;99666.53;;;15.87;51.89
9893;BME280;4985;49.092;8.542;2023-04-08T03:00:35;99678.78;;;15.88;51.89
9893;BME280;4985;49.092;8.542;2023-04-08T03:03:03;99672.66;;;15.87;51.87
9893;BME280;4985;49.092;8.542;2023-04-08T03:05:30;99674.31;;;15.88;51.85
9893;BME280;4985;49.092;8.542;2023-04-08T03:07:58;99667.16;;;15.89;51.83
9893;BME280;4985;49.092;8.542;2023-04-08T03:10:25;99675.13;;;15.89;51.83
9893;BME280;4985;49.092;8.542;2023-04-08T03:12:52;99674.13;;;15.90;51.81
9893;BME280;4985;49.092;8.542;2023-04-08T03:15:18;99670.84;;;15.88;51.81
9893;BME280;4985;49.092;8.542;2023-04-08T03:17:45;99668.19;;;15.88;51.83
9893;BME280;4985;49.092;8.542;2023-04-08T03:20:12;99671.84;;;15.87;51.84
9893;BME280;4985;49.092;8.542;2023-04-08T03:22:38;99666.53;;;15.87;51.84
9893;BME280;4985;49.092;8.542;2023-04-08T03:25:07;99671.84;;;15.87;51.85
9893;BME280;4985;49.092;8.542;2023-04-08T03:27:34;99676.34;;;15.86;51.87
9893;BME280;4985;49.092;8.542;2023-04-08T03:30:00;99671.03;;;15.86;51.86
9893;BME280;4985;49.092;8.542;2023-04-08T03:32:27;99676.34;;;15.86;51.86
9893;BME280;4985;49.092;8.542;2023-04-08T03:34:53;99679.81;;;15.87;51.86
9893;BME280;4985;49.092;8.542;2023-04-08T03:37:20;99679.81;;;15.87;51.87
9893;BME280;4985;49.092;8.542;2023-04-08T03:39:47;99688.78;;;15.86;51.86
9893;BME280;4985;49.092;8.542;2023-04-08T03:42:14;99684.28;;;15.86;51.87
9893;BME280;4985;49.092;8.542;2023-04-08T03:44:41;99678.16;;;15.86;51.86
9893;BME280;4985;49.092;8.542;2023-04-08T03:47:08;99686.13;;;15.86;51.86
9893;BME280;4985;49.092;8.542;2023-04-08T03:49:34;99685.94;;;15.87;51.84
9893;BME280;4985;49.092;8.542;2023-04-08T03:52:01;99698.19;;;15.88;51.83
9893;BME280;4985;49.092;8.542;2023-04-08T03:54:27;99686.94;;;15.86;51.82
9893;BME280;4985;49.092;8.542;2023-04-08T03:56:54;99687.78;;;15.87;51.82
9893;BME280;4985;49.092;8.542;2023-04-08T03:59:22;99693.09;;;15.87;51.81
9893;BME280;4985;49.092;8.542;2023-04-08T04:01:48;99686.94;;;15.86;51.81
9893;BME280;4985;49.092;8.542;2023-04-08T04:04:16;99693.09;;;15.87;51.81
9893;BME280;4985;49.092;8.542;2023-04-08T04:06:43;99690.44;;;15.87;51.80
9893;BME280;4985;49.092;8.542;2023-04-08T04:09:09;99683.47;;;15.86;51.81
9893;BME280;4985;49.092;8.542;2023-04-08T04:11:36;99688.78;;;15.86;51.81
9893;BME280;4985;49.092;8.542;2023-04-08T04:14:03;99687.13;;;15.85;51.82
9893;BME280;4985;49.092;8.542;2023-04-08T04:16:31;99691.44;;;15.86;51.80
9893;BME280;4985;49.092;8.542;2023-04-08T04:18:57;99690.59;;;15.85;51.80
9893;BME280;4985;49.092;8.542;2023-04-08T04:21:24;99678.16;;;15.86;51.81
9893;BME280;4985;49.092;8.542;2023-04-08T04:23:51;99691.44;;;15.86;51.81
9893;BME280;4985;49.092;8.542;2023-04-08T04:26:17;99692.25;;;15.86;51.81
9893;BME280;4985;49.092;8.542;2023-04-08T04:28:45;99683.63;;;15.84;51.81
9893;BME280;4985;49.092;8.542;2023-04-08T04:31:17;99690.78;;;15.84;51.83
9893;BME280;4985;49.092;8.542;2023-04-08T04:33:45;99692.41;;;15.85;51.81
9893;BME280;4985;49.092;8.542;2023-04-08T04:36:11;99694.25;;;15.84;51.83
9893;BME280;4985;49.092;8.542;2023-04-08T04:38:38;99696.91;;;15.84;51.82
9893;BME280;4985;49.092;8.542;2023-04-08T04:41:05;99697.91;;;15.83;51.83
9893;BME280;4985;49.092;8.542;2023-04-08T04:43:31;99698.75;;;15.84;51.84
9893;BME280;4985;49.092;8.542;2023-04-08T04:45:58;99697.09;;;15.83;51.83
9893;BME280;4985;49.092;8.542;2023-04-08T04:48:25;99693.44;;;15.84;51.86
9893;BME280;4985;49.092;8.542;2023-04-08T04:50:56;99702.41;;;15.83;51.84
9893;BME280;4985;49.092;8.542;2023-04-08T04:53:23;99708.53;;;15.83;51.85
9893;BME280;4985;49.092;8.542;2023-04-08T04:55:50;99707.72;;;15.83;51.86
9893;BME280;4985;49.092;8.542;2023-04-08T04:58:17;99707.72;;;15.83;51.87
9893;BME280;4985;49.092;8.542;2023-04-08T05:00:44;99705.44;;;15.80;51.86
9893;BME280;4985;49.092;8.542;2023-04-08T05:03:10;99709.56;;;15.82;51.86
9893;BME280;4985;49.092;8.542;2023-04-08T05:05:37;99715.69;;;15.83;51.87
9893;BME280;4985;49.092;8.542;2023-04-08T05:08:05;99720.16;;;15.82;51.87
9893;BME280;4985;49.092;8.542;2023-04-08T05:10:32;99715.06;;;15.81;51.86
9893;BME280;4985;49.092;8.542;2023-04-08T05:12:59;99721.19;;;15.81;51.86
9893;BME280;4985;49.092;8.542;2023-04-08T05:15:25;99719.34;;;15.82;51.86
9893;BME280;4985;49.092;8.542;2023-04-08T05:17:52;99721.19;;;15.81;51.85
9893;BME280;4985;49.092;8.542;2023-04-08T05:20:18;99721.19;;;15.81;51.85
9893;BME280;4985;49.092;8.542;2023-04-08T05:22:45;99729.16;;;15.81;51.85
9893;BME280;4985;49.092;8.542;2023-04-08T05:25:13;99736.09;;;15.82;51.83
9893;BME280;4985;49.092;8.542;2023-04-08T05:27:39;99735.28;;;15.82;51.82
9893;BME280;4985;49.092;8.542;2023-04-08T05:30:07;99732.63;;;15.82;51.82
9893;BME280;4985;49.092;8.542;2023-04-08T05:32:34;99727.31;;;15.82;51.83
9893;BME280;4985;49.092;8.542;2023-04-08T05:35:01;99732.63;;;15.82;51.81
9893;BME280;4985;49.092;8.542;2023-04-08T05:37:28;99733.44;;;15.82;51.82
9893;BME280;4985;49.092;8.542;2023-04-08T05:39:55;99742.22;;;15.83;51.82
9893;BME280;4985;49.092;8.542;2023-04-08T05:42:23;99732.63;;;15.82;51.82
9893;BME280;4985;49.092;8.542;2023-04-08T05:44:49;99736.28;;;15.81;51.81
9893;BME280;4985;49.092;8.542;2023-04-08T05:47:16;99735.47;;;15.80;51.83
9893;BME280;4985;49.092;8.542;2023-04-08T05:49:42;99736.28;;;15.81;51.84
9893;BME280;4985;49.092;8.542;2023-04-08T05:52:09;99743.44;;;15.80;51.85
9893;BME280;4985;49.092;8.542;2023-04-08T05:54:35;99742.59;;;15.80;51.88
9893;BME280;4985;49.092;8.542;2023-04-08T05:57:02;99746.28;;;15.79;51.88
9893;BME280;4985;49.092;8.542;2023-04-08T05:59:30;99743.63;;;15.79;51.88
9893;BME280;4985;49.092;8.542;2023-04-08T06:01:56;99754.25;;;15.79;51.88
9893;BME280;4985;49.092;8.542;2023-04-08T06:04:23;99757.91;;;15.78;51.88
9893;BME280;4985;49.092;8.542;2023-04-08T06:06:50;99755.44;;;15.76;51.90
9893;BME280;4985;49.092;8.542;2023-04-08T06:09:16;99758.72;;;15.78;51.91
9893;BME280;4985;49.092;8.542;2023-04-08T06:11:43;99757.09;;;15.77;51.91
9893;BME280;4985;49.092;8.542;2023-04-08T06:14:11;99756.25;;;15.77;51.91
9893;BME280;4985;49.092;8.542;2023-04-08T06:16:39;99764.22;;;15.77;51.92
9893;BME280;4985;49.092;8.542;2023-04-08T06:19:05;99767.69;;;15.77;51.90
9893;BME280;4985;49.092;8.542;2023-04-08T06:21:32;99774.84;;;15.77;51.90
9893;BME280;4985;49.092;8.542;2023-04-08T06:23:59;99772.00;;;15.78;51.90
9893;BME280;4985;49.092;8.542;2023-04-08T06:26:25;99779.97;;;15.78;51.89
9893;BME280;4985;49.092;8.542;2023-04-08T06:28:52;99773.00;;;15.77;51.89
9893;BME280;4985;49.092;8.542;2023-04-08T06:31:19;99778.31;;;15.77;51.92
9893;BME280;4985;49.092;8.542;2023-04-08T06:33:47;99776.69;;;15.76;51.94
9893;BME280;4985;49.092;8.542;2023-04-08T06:36:13;99778.50;;;15.76;51.95
9893;BME280;4985;49.092;8.542;2023-04-08T06:38:40;99779.31;;;15.76;51.95
9893;BME280;4985;49.092;8.542;2023-04-08T06:41:07;99787.28;;;15.76;51.95
9893;BME280;4985;49.092;8.542;2023-04-08T06:43:34;99781.16;;;15.76;51.96
9893;BME280;4985;49.092;8.542;2023-04-08T06:46:01;99783.97;;;15.74;51.97
9893;BME280;4985;49.092;8.542;2023-04-08T06:48:28;99781.16;;;15.76;51.98
9893;BME280;4985;49.092;8.542;2023-04-08T06:50:57;99784.81;;;15.75;51.98
9893;BME280;4985;49.092;8.542;2023-04-08T06:53:24;99778.66;;;15.74;51.98
9893;BME280;4985;49.092;8.542;2023-04-08T06:55:53;99783.81;;;15.76;52.00
9893;BME280;4985;49.092;8.542;2023-04-08T06:58:20;99779.50;;;15.75;51.98
9893;BME280;4985;49.092;8.542;2023-04-08T07:00:46;99779.50;;;15.75;51.99
9893;BME280;4985;49.092;8.542;2023-04-08T07:03:13;99783.81;;;15.76;51.98
9893;BME280;4985;49.092;8.542;2023-04-08T07:05:40;99796.06;;;15.77;51.96
9893;BME280;4985;49.092;8.542;2023-04-08T07:08:08;99788.13;;;15.77;51.95
9893;BME280;4985;49.092;8.542;2023-04-08T07:10:35;99795.87;;;15.78;51.95
9893;BME280;4985;49.092;8.542;2023-04-08T07:13:02;99805.69;;;15.78;51.95
9893;BME280;4985;49.092;8.542;2023-04-08T07:15:28;99803.84;;;15.78;51.94
9893;BME280;4985;49.092;8.542;2023-04-08T07:17:55;99807.34;;;15.79;51.93
9893;BME280;4985;49.092;8.542;2023-04-08T07:20:21;99806.31;;;15.80;51.92
9893;BME280;4985;49.092;8.542;2023-04-08T07:22:48;99807.34;;;15.79;51.96
9893;BME280;4985;49.092;8.542;2023-04-08T07:25:16;99812.63;;;15.79;51.98
9893;BME280;4985;49.092;8.542;2023-04-08T07:27:43;99804.66;;;15.79;51.98
9893;BME280;4985;49.092;8.542;2023-04-08T07:30:10;99804.88;;;15.77;52.00
9893;BME280;4985;49.092;8.542;2023-04-08T07:32:37;99807.72;;;15.76;52.03
9893;BME280;4985;49.092;8.542;2023-04-08T07:35:04;99803.22;;;15.76;52.05
9893;BME280;4985;49.092;8.542;2023-04-08T07:37:31;99802.56;;;15.74;52.09
9893;BME280;4985;49.092;8.542;2023-04-08T07:39:57;99806.06;;;15.75;52.10
9893;BME280;4985;49.092;8.542;2023-04-08T07:42:25;99808.88;;;15.73;52.14
9893;BME280;4985;49.092;8.542;2023-04-08T07:44:53;99812.34;;;15.73;52.16
9893;BME280;4985;49.092;8.542;2023-04-08T07:47:19;99806.78;;;15.68;52.17
9893;BME280;4985;49.092;8.542;2023-04-08T07:49:46;99819.34;;;15.75;52.17
9893;BME280;4985;49.092;8.542;2023-04-08T07:52:13;99812.81;;;15.77;52.11
9893;BME280;4985;49.092;8.542;2023-04-08T07:54:39;99817.94;;;15.79;52.09
9893;BME280;4985;49.092;8.542;2023-04-08T07:57:06;99817.94;;;15.79;52.08
9893;BME280;4985;49.092;8.542;2023-04-08T07:59:34;99816.94;;;15.80;52.07
9893;BME280;4985;49.092;8.542;2023-04-08T08:02:01;99819.59;;;15.80;52.07
9893;BME280;4985;49.092;8.542;2023-04-08T08:04:27;99823.25;;;15.79;52.08
9893;BME280;4985;49.092;8.542;2023-04-08T08:06:54;99840.81;;;15.80;52.09
9893;BME280;4985;49.092;8.542;2023-04-08T08:09:20;99833.87;;;15.79;52.11
9893;BME280;4985;49.092;8.542;2023-04-08T08:11:47;99833.87;;;15.79;52.11
9893;BME280;4985;49.092;8.542;2023-04-08T08:14:14;99840.81;;;15.80;52.10
9893;BME280;4985;49.092;8.542;2023-04-08T08:16:41;99837.16;;;15.81;52.10
9893;BME280;4985;49.092;8.542;2023-04-08T08:19:08;99850.44;;;15.81;52.09
9893;BME280;4985;49.092;8.542;2023-04-08T08:21:36;99844.94;;;15.82;52.08
9893;BME280;4985;49.092;8.542;2023-04-08T08:24:04;99849.44;;;15.82;52.07
9893;BME280;4985;49.092;8.542;2023-04-08T08:26:30;99843.94;;;15.83;52.07
9893;BME280;4985;49.092;8.542;2023-04-08T08:28:57;99840.44;;;15.83;52.08
9893;BME280;4985;49.092;8.542;2023-04-08T08:31:23;99843.09;;;15.83;52.11
9893;BME280;4985;49.092;8.542;2023-04-08T08:33:51;99842.28;;;15.82;52.12
9893;BME280;4985;49.092;8.542;2023-04-08T08:36:18;99846.59;;;15.83;52.11
9893;BME280;4985;49.092;8.542;2023-04-08T08:38:44;99847.41;;;15.84;52.09
9893;BME280;4985;49.092;8.542;2023-04-08T08:41:11;99848.22;;;15.84;52.08
9893;BME280;4985;49.092;8.542;2023-04-08T08:43:38;99842.09;;;15.84;52.07
9893;BME280;4985;49.092;8.542;2023-04-08T08:46:07;99852.72;;;15.84;52.10
9893;BME280;4985;49.092;8.542;2023-04-08T08:48:36;99846.59;;;15.83;52.12
9893;BME280;4985;49.092;8.542;2023-04-08T08:51:08;99847.41;;;15.84;52.12
9893;BME280;4985;49.092;8.542;2023-04-08T08:53:35;99855.38;;;15.84;52.13
9893;BME280;4985;49.092;8.542;2023-04-08T08:56:02;99849.06;;;15.85;52.13
9893;BME280;4985;49.092;8.542;2023-04-08T08:58:29;99856.03;;;15.86;52.11
9893;BME280;4985;49.092;8.542;2023-04-08T09:00:56;99848.06;;;15.86;52.09
9893;BME280;4985;49.092;8.542;2023-04-08T09:03:24;99857.69;;;15.87;52.09
9893;BME280;4985;49.092;8.542;2023-04-08T09:05:53;99864.00;;;15.86;52.10
9893;BME280;4985;49.092;8.542;2023-04-08T09:08:26;99863.00;;;15.87;52.12
9893;BME280;4985;49.092;8.542;2023-04-08T09:10:53;99866.47;;;15.87;52.11
9893;BME280;4985;49.092;8.542;2023-04-08T09:13:21;99857.69;;;15.87;52.11
9893;BME280;4985;49.092;8.542;2023-04-08T09:16:02;99857.69;;;15.87;52.09
9893;BME280;4985;49.092;8.542;2023-04-08T09:18:29;99859.31;;;15.88;52.12
9893;BME280;4985;49.092;8.542;2023-04-08T09:20:58;99865.28;;;15.90;52.13
9893;BME280;4985;49.092;8.542;2023-04-08T09:23:36;99857.50;;;15.88;52.13
9893;BME280;4985;49.092;8.542;2023-04-08T09:26:06;99858.31;;;15.89;52.13
9893;BME280;4985;49.092;8.542;2023-04-08T09:28:33;99861.16;;;15.87;52.15
9893;BME280;4985;49.092;8.542;2023-04-08T09:31:00;99859.31;;;15.88;52.19
9893;BME280;4985;49.092;8.542;2023-04-08T09:33:29;99855.84;;;15.87;52.23
9893;BME280;4985;49.092;8.542;2023-04-08T09:35:56;99863.00;;;15.87;52.24
9893;BME280;4985;49.092;8.542;2023-04-08T09:38:23;99859.31;;;15.88;52.24
9893;BME280;4985;49.092;8.542;2023-04-08T09:40:52;99855.66;;;15.89;52.23
9893;BME280;4985;49.092;8.542;2023-04-08T09:43:21;99854.66;;;15.90;52.21
9893;BME280;4985;49.092;8.542;2023-04-08T09:45:51;99858.94;;;15.91;52.22
9893;BME280;4985;49.092;8.542;2023-04-08T09:48:21;99853.66;;;15.91;52.24
9893;BME280;4985;49.092;8.542;2023-04-08T09:50:51;99851.19;;;15.89;52.24
9893;BME280;4985;49.092;8.542;2023-04-08T09:53:32;99859.78;;;15.91;52.26
9893;BME280;4985;49.092;8.542;2023-04-08T09:56:05;99858.94;;;15.91;52.27
9893;BME280;4985;49.092;8.542;2023-04-08T09:58:38;99858.94;;;15.91;52.26
9893;BME280;4985;49.092;8.542;2023-04-08T10:01:06;99856.94;;;15.93;52.26
9893;BME280;4985;49.092;8.542;2023-04-08T10:03:35;99858.56;;;15.94;52.23
9893;BME280;4985;49.092;8.542;2023-04-08T10:06:02;99862.88;;;15.95;52.22
9893;BME280;4985;49.092;8.542;2023-04-08T10:08:29;99853.06;;;15.95;52.20
9893;BME280;4985;49.092;8.542;2023-04-08T10:10:57;99859.22;;;15.96;52.19
9893;BME280;4985;49.092;8.542;2023-04-08T10:13:26;99856.56;;;15.96;52.20
9893;BME280;4985;49.092;8.542;2023-04-08T10:16:17;99861.88;;;15.96;52.21
9893;BME280;4985;49.092;8.542;2023-04-08T10:18:44;99860.22;;;15.95;52.24
9893;BME280;4985;49.092;8.542;2023-04-08T10:21:35;99866.34;;;15.95;52.26
9893;BME280;4985;49.092;8.542;2023-04-08T10:24:06;99871.66;;;15.95;52.28
9893;BME280;4985;49.092;8.542;2023-04-08T10:26:34;99865.34;;;15.96;52.27
9893;BME280;4985;49.092;8.542;2023-04-08T10:29:30;99860.88;;;15.97;52.25
9893;BME280;4985;49.092;8.542;2023-04-08T10:31:57;99867.66;;;15.99;52.23
9893;BME280;4985;49.092;8.542;2023-04-08T10:34:24;99867.47;;;16.01;52.20
9893;BME280;4985;49.092;8.542;2023-04-08T10:36:52;99860.31;;;16.01;52.19
9893;BME280;4985;49.092;8.542;2023-04-08T10:39:19;99870.75;;;16.03;52.17
9893;BME280;4985;49.092;8.542;2023-04-08T10:41:48;99861.78;;;16.04;52.15
9893;BME280;4985;49.092;8.542;2023-04-08T10:44:15;99864.44;;;16.04;52.15
9893;BME280;4985;49.092;8.542;2023-04-08T10:46:43;99859.13;;;16.04;52.16
9893;BME280;4985;49.092;8.542;2023-04-08T10:49:10;99859.13;;;16.04;52.16
9893;BME280;4985;49.092;8.542;2023-04-08T10:51:37;99853.81;;;16.04;52.16
9893;BME280;4985;49.092;8.542;2023-04-08T10:54:08;99859.13;;;16.04;52.19
9893;BME280;4985;49.092;8.542;2023-04-08T10:56:35;99854.63;;;16.05;52.22
9893;BME280;4985;49.092;8.542;2023-04-08T10:59:02;99859.94;;;16.05;52.23
9893;BME280;4985;49.092;8.542;2023-04-08T11:01:37;99856.47;;;16.04;52.26
9893;BME280;4985;49.092;8.542;2023-04-08T11:04:10;99861.78;;;16.04;52.27
9893;BME280;4985;49.092;8.542;2023-04-08T11:06:37;99850.16;;;16.05;52.26
9893;BME280;4985;49.092;8.542;2023-04-08T11:09:04;99846.47;;;16.06;52.24
9893;BME280;4985;49.092;8.542;2023-04-08T11:11:30;99849.97;;;16.07;52.24
9893;BME280;4985;49.092;8.542;2023-04-08T11:13:57;99845.47;;;16.07;52.21
9893;BME280;4985;49.092;8.542;2023-04-08T11:16:25;99843.63;;;16.08;52.22
9893;BME280;4985;49.092;8.542;2023-04-08T11:18:53;99848.94;;;16.08;52.22
9893;BME280;4985;49.092;8.542;2023-04-08T11:21:23;99853.09;;;16.10;52.22
9893;BME280;4985;49.092;8.542;2023-04-08T11:23:54;99853.09;;;16.10;52.23
9893;BME280;4985;49.092;8.542;2023-04-08T11:26:21;99851.44;;;16.09;52.24
9893;BME280;4985;49.092;8.542;2023-04-08T11:28:49;99852.28;;;16.10;52.25
9893;BME280;4985;49.092;8.542;2023-04-08T11:31:16;99860.38;;;16.08;52.29
9893;BME280;4985;49.092;8.542;2023-04-08T11:33:45;99852.62;;;16.07;52.31
9893;BME280;4985;49.092;8.542;2023-04-08T11:36:12;99858.75;;;16.07;52.34
9893;BME280;4985;49.092;8.542;2023-04-08T11:38:40;99854.25;;;16.08;52.34
9893;BME280;4985;49.092;8.542;2023-04-08T11:41:07;99855.75;;;16.10;52.33
9893;BME280;4985;49.092;8.542;2023-04-08T11:43:33;99850.44;;;16.10;52.30
9893;BME280;4985;49.092;8.542;2023-04-08T11:46:08;99854.72;;;16.11;52.31
9893;BME280;4985;49.092;8.542;2023-04-08T11:48:36;99855.56;;;16.12;52.31
9893;BME280;4985;49.092;8.542;2023-04-08T11:51:03;99851.88;;;16.13;52.29
9893;BME280;4985;49.092;8.542;2023-04-08T11:53:30;99855.19;;;16.15;52.25
9893;BME280;4985;49.092;8.542;2023-04-08T11:56:14;99852.34;;;16.16;52.23
9893;BME280;4985;49.092;8.542;2023-04-08T11:58:41;99849.03;;;16.14;52.21
9893;BME280;4985;49.092;8.542;2023-04-08T12:01:08;99840.69;;;16.17;52.20
9893;BME280;4985;49.092;8.542;2023-04-08T12:03:34;99839.69;;;16.18;52.17
9893;BME280;4985;49.092;8.542;2023-04-08T12:06:01;99842.34;;;16.18;52.18
9893;BME280;4985;49.092;8.542;2023-04-08T12:08:28;99838.03;;;16.17;52.21
9893;BME280;4985;49.092;8.542;2023-04-08T12:10:55;99844.38;;;16.16;52.24
9893;BME280;4985;49.092;8.542;2023-04-08T12:13:23;99847.03;;;16.16;52.27
9893;BME280;4985;49.092;8.542;2023-04-08T12:15:50;99839.06;;;16.16;52.27
9893;BME280;4985;49.092;8.542;2023-04-08T12:18:16;99853.97;;;16.17;52.29
9893;BME280;4985;49.092;8.542;2023-04-08T12:20:43;99855.63;;;16.18;52.28
9893;BME280;4985;49.092;8.542;2023-04-08T12:23:09;99850.16;;;16.20;52.25
9893;BME280;4985;49.092;8.542;2023-04-08T12:25:36;99854.59;;;16.19;52.25
9893;BME280;4985;49.092;8.542;2023-04-08T12:28:02;99861.59;;;16.20;52.25
9893;BME280;4985;49.092;8.542;2023-04-08T12:30:30;99857.28;;;16.19;52.25
9893;BME280;4985;49.092;8.542;2023-04-08T12:32:57;99854.25;;;16.22;52.23
9893;BME280;4985;49.092;8.542;2023-04-08T12:35:23;99862.22;;;16.22;52.22
9893;BME280;4985;49.092;8.542;2023-04-08T12:37:50;99858.56;;;16.23;52.20
9893;BME280;4985;49.092;8.542;2023-04-08T12:40:17;99861.22;;;16.23;52.19
9893;BME280;4985;49.092;8.542;2023-04-08T12:42:44;99867.16;;;16.25;52.17
9893;BME280;4985;49.092;8.542;2023-04-08T12:45:12;99863.69;;;16.25;52.17
9893;BME280;4985;49.092;8.542;2023-04-08T12:47:40;99868.00;;;16.26;52.17
9893;BME280;4985;49.092;8.542;2023-04-08T12:50:07;99862.47;;;16.27;52.16
9893;BME280;4985;49.092;8.542;2023-04-08T12:52:34;99864.31;;;16.27;52.16
9893;BME280;4985;49.092;8.542;2023-04-08T12:55:01;99861.47;;;16.28;52.14
9893;BME280;4985;49.092;8.542;2023-04-08T12:57:27;99864.75;;;16.30;52.13
9893;BME280;4985;49.092;8.542;2023-04-08T12:59:56;99858.47;;;16.32;52.09
9893;BME280;4985;49.092;8.542;2023-04-08T13:02:22;99860.75;;;16.35;52.06
9893;BME280;4985;49.092;8.542;2023-04-08T13:04:52;99866.88;;;16.35;52.05
9893;BME280;4985;49.092;8.542;2023-04-08T13:07:19;99860.75;;;16.35;52.04
9893;BME280;4985;49.092;8.542;2023-04-08T13:09:46;99864.03;;;16.37;52.04
9893;BME280;4985;49.092;8.542;2023-04-08T13:12:12;99857.06;;;16.36;52.05
9893;BME280;4985;49.092;8.542;2023-04-08T13:14:40;99856.06;;;16.37;52.07
9893;BME280;4985;49.092;8.542;2023-04-08T13:17:07;99850.75;;;16.37;52.10
9893;BME280;4985;49.092;8.542;2023-04-08T13:19:33;99850.56;;;16.38;52.09
9893;BME280;4985;49.092;8.542;2023-04-08T13:22:01;99850.56;;;16.38;52.09
9893;BME280;4985;49.092;8.542;2023-04-08T13:24:28;99843.22;;;16.40;52.07
9893;BME280;4985;49.092;8.542;2023-04-08T13:26:55;99842.38;;;16.40;52.09